Time;durP1;ratioP1;P1;durP2;ratioP2;P2;SDS_P1;SDS_P2;PMS_P1;PMS_P2;Temp;Humidity;BMP_temperature;BMP_pressure;BME280_temperature;BME280_humidity;BME280_pressure;Samples;Min_cycle;Max_cycle;Signal;HPM_P1;HPM_P2
2021/04/14 00:01:47;;;;;;;7.57;6.78;;;;;;;2.84;66.32;100641.56;4975192;28;20253;-70
2021/04/14 00:04:13;;;;;;;9.68;6.40;;;;;;;2.62;67.05;100640.00;4975457;28;20684;-72
2021/04/14 00:06:40;;;;;;;8.85;6.05;;;;;;;2.59;67.73;100640.94;4975618;28;20210;-71
2021/04/14 00:09:06;;;;;;;7.20;6.35;;;;;;;2.66;67.33;100632.00;4975243;28;20191;-71
2021/04/14 00:11:32;;;;;;;11.07;7.15;;;;;;;2.37;68.37;100639.34;4975124;28;20208;-72
2021/04/14 00:13:59;;;;;;;9.20;8.23;;;;;;;2.38;68.75;100642.00;4975179;28;20731;-71
2021/04/14 00:16:27;;;;;;;7.93;6.80;;;;;;;2.32;69.06;100635.84;4974722;28;20206;-71
2021/04/14 00:18:53;;;;;;;8.50;7.25;;;;;;;2.14;69.98;100644.84;4974714;28;20192;-71
2021/04/14 00:21:21;;;;;;;10.38;7.30;;;;;;;2.09;70.61;100645.75;4974451;28;20199;-72
2021/04/14 00:23:49;;;;;;;7.65;6.95;;;;;;;2.08;70.57;100646.66;4974666;28;20224;-71
2021/04/14 00:26:16;;;;;;;6.95;6.18;;;;;;;2.14;70.45;100643.06;4974661;28;20225;-71
2021/04/14 00:28:44;;;;;;;7.32;6.45;;;;;;;1.98;71.06;100642.28;4974605;28;20299;-71
2021/04/14 00:31:11;;;;;;;7.90;7.10;;;;;;;2.04;71.33;100638.72;4974981;28;20254;-72
2021/04/14 00:33:37;;;;;;;8.13;6.65;;;;;;;2.06;70.66;100637.81;4975131;28;20208;-72
2021/04/14 00:36:04;;;;;;;8.57;6.70;;;;;;;2.34;69.80;100636.72;4974821;28;20247;-71
2021/04/14 00:38:31;;;;;;;7.63;6.40;;;;;;;2.28;70.09;100645.59;4974791;28;20886;-71
2021/04/14 00:41:00;;;;;;;11.82;7.00;;;;;;;2.31;70.17;100634.97;4974343;28;20229;-72
2021/04/14 00:43:30;;;;;;;9.63;6.85;;;;;;;2.34;70.00;100626.09;4974497;28;20227;-72
2021/04/14 00:45:57;;;;;;;12.27;6.18;;;;;;;2.26;70.82;100636.75;4974060;28;20185;-72
2021/04/14 00:48:24;;;;;;;9.45;6.72;;;;;;;2.29;70.24;100632.31;4974382;28;20611;-71
2021/04/14 00:50:50;;;;;;;8.48;6.72;;;;;;;2.34;70.21;100628.75;4974169;28;20268;-72
2021/04/14 00:53:17;;;;;;;7.47;6.40;;;;;;;2.32;70.26;100636.72;4974435;28;20281;-71
2021/04/14 00:55:44;;;;;;;9.82;6.50;;;;;;;2.26;70.38;100627.03;4973904;28;20731;-71
2021/04/14 00:58:11;;;;;;;8.30;7.03;;;;;;;2.06;71.51;100621.00;4973710;28;20281;-72
2021/04/14 01:00:40;;;;;;;7.95;6.82;;;;;;;2.08;71.77;100627.13;4974167;28;20204;-71
2021/04/14 01:03:14;;;;;;;9.40;7.13;;;;;;;2.11;71.61;100628.91;4974219;28;20295;-71
2021/04/14 01:05:43;;;;;;;11.95;7.00;;;;;;;2.09;71.58;100618.28;4974295;28;20247;-72
2021/04/14 01:08:09;;;;;;;9.50;7.43;;;;;;;2.01;72.19;100617.47;4973672;28;20296;-71
2021/04/14 01:10:35;;;;;;;9.60;6.55;;;;;;;2.04;72.13;100622.78;4974141;28;20184;-70
2021/04/14 01:13:02;;;;;;;9.32;6.40;;;;;;;1.92;72.43;100614.88;4974131;28;20185;-72
2021/04/14 01:15:34;;;;;;;8.52;7.50;;;;;;;1.98;72.38;100612.19;4973926;28;20564;-72
2021/04/14 01:18:00;;;;;;;7.70;6.90;;;;;;;1.86;72.84;100616.69;4973631;28;20231;-72
2021/04/14 01:20:27;;;;;;;10.02;7.53;;;;;;;1.98;72.57;100612.19;4973487;28;20671;-71
2021/04/14 01:22:54;;;;;;;7.90;7.10;;;;;;;1.83;72.81;100608.75;4973876;28;20223;-72
2021/04/14 01:25:23;;;;;;;8.02;6.10;;;;;;;1.88;72.77;100608.72;4973905;28;20274;-72
2021/04/14 01:27:49;;;;;;;7.85;6.93;;;;;;;1.72;72.92;100607.00;4974012;28;20188;-71
2021/04/14 01:30:19;;;;;;;10.88;7.13;;;;;;;1.60;73.38;100608.84;4973933;28;20207;-72
2021/04/14 01:32:45;;;;;;;9.00;7.70;;;;;;;1.56;73.83;100612.44;4974216;28;20194;-72
2021/04/14 01:35:13;;;;;;;9.35;7.38;;;;;;;1.52;74.03;100616.00;4973424;28;20188;-70
2021/04/14 01:37:39;;;;;;;10.60;7.70;;;;;;;1.32;74.79;100617.84;4973444;28;20215;-71
2021/04/14 01:40:07;;;;;;;9.68;7.30;;;;;;;1.29;75.23;100613.44;4973490;28;20195;-71
2021/04/14 01:42:33;;;;;;;8.95;6.60;;;;;;;1.28;75.16;100609.00;4973692;28;20236;-72
2021/04/14 01:45:00;;;;;;;9.00;6.53;;;;;;;1.32;75.09;100609.88;4973582;28;20196;-72
2021/04/14 01:47:26;;;;;;;10.55;7.93;;;;;;;1.06;76.35;100609.97;4973586;28;20682;-72
2021/04/14 01:49:52;;;;;;;8.23;6.60;;;;;;;1.22;76.28;100609.03;4973463;28;20188;-71
2021/04/14 01:52:18;;;;;;;9.80;7.53;;;;;;;1.25;75.90;100611.69;4973132;28;20220;-71
2021/04/14 01:54:44;;;;;;;7.93;7.13;;;;;;;1.38;75.64;100613.41;4973631;28;20192;-70
2021/04/14 01:57:11;;;;;;;7.97;7.18;;;;;;;1.61;74.35;100600.00;4973175;28;20202;-72
2021/04/14 01:59:37;;;;;;;10.98;7.30;;;;;;;1.67;73.91;100604.38;4973216;28;20208;-71
2021/04/14 02:02:04;;;;;;;12.98;6.95;;;;;;;1.74;73.91;100603.50;4973073;28;20236;-70
2021/04/14 02:04:30;;;;;;;11.32;7.30;;;;;;;1.65;73.94;100600.84;4973277;28;20212;-71
2021/04/14 02:06:56;;;;;;;8.25;6.82;;;;;;;1.52;74.64;100601.84;4973291;28;20256;-72
2021/04/14 02:09:22;;;;;;;9.40;7.35;;;;;;;1.55;74.42;100602.69;4976662;28;20195;-71
2021/04/14 02:11:48;;;;;;;8.90;7.15;;;;;;;1.40;75.08;100601.00;4977268;28;20601;-71
2021/04/14 02:14:15;;;;;;;7.28;6.57;;;;;;;1.31;75.70;100606.38;4977247;28;20200;-71
2021/04/14 02:16:42;;;;;;;8.05;6.78;;;;;;;1.53;75.11;100606.25;4976968;28;20634;-71
2021/04/14 02:19:08;;;;;;;8.63;6.50;;;;;;;1.48;75.08;100608.06;4976890;28;20190;-71
2021/04/14 02:21:35;;;;;;;10.10;6.65;;;;;;;1.65;74.40;100596.44;4977097;28;20699;-72
2021/04/14 02:24:01;;;;;;;7.45;6.22;;;;;;;1.49;74.79;100594.75;4977143;28;20731;-71
2021/04/14 02:26:28;;;;;;;10.25;7.50;;;;;;;1.31;75.50;100589.53;4977092;28;20552;-70
2021/04/14 02:28:55;;;;;;;8.95;7.22;;;;;;;1.28;75.67;100590.44;4977119;28;20262;-72
2021/04/14 02:31:29;;;;;;;8.02;7.22;;;;;;;1.25;76.02;100588.69;4976726;28;20239;-71
2021/04/14 02:33:57;;;;;;;7.65;6.90;;;;;;;1.07;76.87;100579.94;4976745;28;20231;-70
2021/04/14 02:36:23;;;;;;;8.02;7.22;;;;;;;1.33;76.60;100587.75;4977184;28;20634;-71
2021/04/14 02:38:49;;;;;;;10.90;6.60;;;;;;;1.20;76.54;100585.16;4976666;28;20198;-71
2021/04/14 02:41:16;;;;;;;10.20;7.13;;;;;;;1.32;76.10;100586.88;4976499;28;20211;-71
2021/04/14 02:43:42;;;;;;;10.50;7.13;;;;;;;1.30;76.33;100587.78;4976371;28;20222;-72
2021/04/14 02:46:08;;;;;;;7.22;6.53;;;;;;;1.48;75.56;100590.34;4976276;28;20250;-72
2021/04/14 02:48:35;;;;;;;6.00;5.35;;;;;;;1.57;75.19;100589.41;4976254;28;20207;-73
2021/04/14 02:51:01;;;;;;;6.82;5.68;;;;;;;1.53;75.22;100588.53;4976621;28;20611;-71
2021/04/14 02:53:27;;;;;;;9.88;7.07;;;;;;;1.62;74.93;100587.59;4976027;28;20216;-72
2021/04/14 02:55:53;;;;;;;6.97;6.25;;;;;;;1.16;76.29;100586.06;4976402;28;20270;-71
2021/04/14 02:58:20;;;;;;;7.45;6.75;;;;;;;1.00;77.34;100582.59;4976054;28;20196;-71
2021/04/14 03:00:46;;;;;;;10.35;6.75;;;;;;;1.09;77.21;100588.75;4976213;28;20204;-72
2021/04/14 03:03:12;;;;;;;6.43;5.82;;;;;;;1.27;76.78;100583.38;4976071;28;20208;-72
2021/04/14 03:05:39;;;;;;;9.88;7.30;;;;;;;1.29;76.74;100583.34;4976028;28;20192;-72
2021/04/14 03:08:05;;;;;;;7.25;6.55;;;;;;;1.22;76.37;100580.75;4975548;28;20188;-72
2021/04/14 03:10:32;;;;;;;10.80;6.88;;;;;;;1.20;76.61;100584.28;4975610;28;20251;-71
2021/04/14 03:12:59;;;;;;;9.95;7.03;;;;;;;0.98;77.22;100581.72;4976079;28;20575;-70
2021/04/14 03:15:28;;;;;;;10.38;6.68;;;;;;;1.07;77.41;100582.56;4976127;28;20185;-72
2021/04/14 03:17:55;;;;;;;8.40;7.25;;;;;;;1.17;77.00;100584.28;4976092;28;20204;-72
2021/04/14 03:20:21;;;;;;;11.65;7.57;;;;;;;1.09;77.19;100571.06;4975259;28;20581;-72
2021/04/14 03:22:50;;;;;;;7.88;6.68;;;;;;;1.14;76.96;100577.22;4975912;28;20649;-72
2021/04/14 03:25:17;;;;;;;8.23;6.80;;;;;;;1.08;77.02;100576.38;4975671;28;20211;-71
2021/04/14 03:27:43;;;;;;;7.95;7.07;;;;;;;1.06;77.27;100575.50;4975468;28;20184;-71
2021/04/14 03:30:11;;;;;;;10.85;8.10;;;;;;;1.04;77.16;100571.09;4975932;28;20250;-71
2021/04/14 03:32:38;;;;;;;8.35;6.68;;;;;;;0.96;77.37;100567.56;4975850;28;20286;-72
2021/04/14 03:35:06;;;;;;;9.77;7.38;;;;;;;0.93;77.86;100570.25;4975554;28;20188;-71
2021/04/14 03:37:32;;;;;;;8.43;6.95;;;;;;;1.00;77.64;100564.03;4974871;28;20188;-71
2021/04/14 03:39:59;;;;;;;9.50;7.40;;;;;;;0.85;78.27;100561.41;4975468;28;20335;-71
2021/04/14 03:42:25;;;;;;;8.38;6.90;;;;;;;0.86;78.31;100565.84;4975534;28;20235;-71
2021/04/14 03:44:54;;;;;;;7.85;7.10;;;;;;;0.74;78.90;100560.56;4975374;28;20292;-71
2021/04/14 03:47:20;;;;;;;8.43;7.00;;;;;;;0.76;78.44;100567.63;4975595;28;20210;-70
2021/04/14 03:49:46;;;;;;;8.07;6.80;;;;;;;0.70;78.71;100565.00;4975443;28;20228;-72
2021/04/14 03:52:13;;;;;;;11.73;7.53;;;;;;;0.78;78.90;100562.31;4975404;28;20188;-72
2021/04/14 03:54:39;;;;;;;9.52;7.57;;;;;;;1.01;78.29;100565.78;4974995;28;20196;-70
2021/04/14 03:57:06;;;;;;;9.90;6.90;;;;;;;1.13;77.38;100567.53;4975390;28;20690;-72
2021/04/14 03:59:32;;;;;;;9.75;7.60;;;;;;;1.14;77.14;100566.63;4975131;28;20208;-71
2021/04/14 04:01:59;;;;;;;8.35;7.00;;;;;;;1.06;77.04;100570.19;4975270;28;20593;-72
2021/04/14 04:04:25;;;;;;;11.82;7.90;;;;;;;0.93;77.55;100574.66;4975425;28;20214;-73
2021/04/14 04:06:51;;;;;;;10.30;8.10;;;;;;;0.96;77.81;100578.19;4974509;28;20188;-71
2021/04/14 04:09:17;;;;;;;8.48;7.43;;;;;;;0.88;77.74;100579.09;4975033;28;20204;-72
2021/04/14 04:11:43;;;;;;;14.10;7.82;;;;;;;0.94;77.88;100571.13;4975098;28;20191;-71
2021/04/14 04:14:10;;;;;;;10.43;7.85;;;;;;;0.77;78.77;100577.34;4975278;28;20553;-71
2021/04/14 04:16:37;;;;;;;10.40;7.57;;;;;;;1.02;78.41;100572.88;4974880;28;20184;-70
2021/04/14 04:19:03;;;;;;;10.48;7.15;;;;;;;0.91;78.07;100574.66;4975171;28;20204;-70
2021/04/14 04:21:29;;;;;;;9.63;8.57;;;;;;;0.76;78.51;100577.34;4974935;28;20188;-71
2021/04/14 04:23:55;;;;;;;12.93;8.52;;;;;;;0.74;79.06;100576.47;4975185;28;20330;-72
2021/04/14 04:26:23;;;;;;;9.95;8.40;;;;;;;0.65;79.14;100582.69;4974919;28;20342;-72
2021/04/14 04:28:49;;;;;;;11.60;8.48;;;;;;;0.64;79.67;100575.63;4975168;28;20939;-71
2021/04/14 04:31:16;;;;;;;10.73;8.40;;;;;;;0.72;79.45;100580.88;4973819;28;20942;-70
2021/04/14 04:33:42;;;;;;;10.15;8.02;;;;;;;0.57;79.91;100572.09;4974498;28;20203;-72
2021/04/14 04:36:08;;;;;;;11.48;9.45;;;;;;;0.70;79.43;100580.00;4974602;28;20268;-71
2021/04/14 04:38:35;;;;;;;9.73;8.52;;;;;;;0.68;79.77;100588.00;4955328;28;20687;-72
2021/04/14 04:41:01;;;;;;;10.00;8.15;;;;;;;0.55;79.83;100581.81;4955351;28;20593;-72
2021/04/14 04:43:27;;;;;;;11.25;8.30;;;;;;;0.57;80.06;100577.41;4957205;28;20223;-72
2021/04/14 04:45:54;;;;;;;11.15;8.63;;;;;;;0.70;79.97;100582.66;4974307;28;20192;-71
2021/04/14 04:48:21;;;;;;;11.02;8.30;;;;;;;0.83;79.55;100577.31;4974269;28;20188;-71
2021/04/14 04:50:47;;;;;;;13.02;8.70;;;;;;;0.86;79.11;100576.47;4974039;28;20203;-70
2021/04/14 04:53:15;;;;;;;11.27;8.48;;;;;;;0.70;79.38;100586.22;4973912;28;20192;-71
2021/04/14 04:55:42;;;;;;;12.85;8.40;;;;;;;0.77;80.36;100589.72;4974104;28;20274;-71
2021/04/14 04:58:08;;;;;;;14.38;8.70;;;;;;;0.59;81.22;100593.31;4973879;28;20304;-71
2021/04/14 05:00:35;;;;;;;11.73;8.50;;;;;;;0.78;80.32;100589.72;4973831;28;20215;-72
2021/04/14 05:03:06;;;;;;;11.30;8.15;;;;;;;0.85;79.79;100592.38;4973696;28;20231;-70
2021/04/14 05:05:36;;;;;;;11.93;8.73;;;;;;;0.64;80.12;100599.47;4973762;28;20192;-70
2021/04/14 05:08:04;;;;;;;9.52;8.18;;;;;;;0.65;80.28;100597.69;4973652;28;20240;-71
2021/04/14 05:10:32;;;;;;;13.15;8.55;;;;;;;0.57;80.46;100595.94;4973841;28;20299;-71
2021/04/14 05:12:58;;;;;;;11.13;8.85;;;;;;;0.70;79.90;100593.25;4974093;28;20677;-71
2021/04/14 05:15:28;;;;;;;13.38;8.50;;;;;;;0.83;79.81;100593.22;4973857;28;20242;-71
2021/04/14 05:17:54;;;;;;;12.38;8.50;;;;;;;0.96;78.88;100588.78;4972658;28;20196;-73
2021/04/14 05:20:21;;;;;;;13.98;11.35;;;;;;;1.00;78.88;100587.91;4973203;28;20568;-72
2021/04/14 05:22:49;;;;;;;12.88;9.20;;;;;;;1.08;78.52;100587.84;4973104;28;20283;-72
2021/04/14 05:25:18;;;;;;;11.55;8.52;;;;;;;1.07;78.35;100591.41;4973231;28;20255;-71
2021/04/14 05:27:44;;;;;;;14.88;9.48;;;;;;;1.18;78.35;100594.03;4972909;28;20271;-71
2021/04/14 05:30:13;;;;;;;13.70;9.02;;;;;;;1.24;77.86;100593.97;4972930;28;20192;-73
2021/04/14 05:32:40;;;;;;;12.73;8.43;;;;;;;1.29;77.77;100596.63;4972661;28;20294;-71
2021/04/14 05:35:08;;;;;;;11.82;9.13;;;;;;;1.31;77.09;100609.00;4973355;28;20191;-72
2021/04/14 05:37:34;;;;;;;10.38;9.38;;;;;;;1.27;77.40;100607.25;4973107;28;20204;-71
2021/04/14 05:40:01;;;;;;;17.45;9.65;;;;;;;1.20;77.57;100610.81;4972793;28;20192;-71
2021/04/14 05:42:27;;;;;;;13.27;9.63;;;;;;;1.34;78.13;100608.13;4973029;28;20766;-71
2021/04/14 05:44:54;;;;;;;13.90;9.85;;;;;;;1.27;77.58;100609.00;4972675;28;20220;-71
2021/04/14 05:47:20;;;;;;;12.18;9.43;;;;;;;1.33;77.42;100609.88;4972981;28;20196;-70
2021/04/14 05:49:46;;;;;;;13.23;10.60;;;;;;;1.37;77.59;100608.97;4973513;28;20242;-73
2021/04/14 05:52:12;;;;;;;13.65;10.00;;;;;;;1.25;77.18;100617.00;4972943;28;20298;-72
2021/04/14 05:54:38;;;;;;;12.90;9.13;;;;;;;1.23;77.32;100614.34;4973142;28;20269;-71
2021/04/14 05:57:06;;;;;;;12.45;9.25;;;;;;;1.39;77.25;100612.50;4972862;28;20511;-72
2021/04/14 05:59:32;;;;;;;11.15;9.65;;;;;;;1.37;77.40;100611.63;4973178;28;20239;-72
2021/04/14 06:01:59;;;;;;;11.48;9.23;;;;;;;1.55;76.43;100615.09;4972668;28;20325;-72
2021/04/14 06:04:25;;;;;;;14.20;11.10;;;;;;;1.57;76.59;100613.31;4973125;28;20302;-72
2021/04/14 06:06:51;;;;;;;11.93;9.77;;;;;;;1.71;76.22;100614.09;4973120;28;20207;-73
2021/04/14 06:09:17;;;;;;;14.63;11.75;;;;;;;1.73;76.41;100617.63;4972889;28;20194;-72
2021/04/14 06:11:44;;;;;;;17.52;9.82;;;;;;;1.74;76.13;100618.50;4973026;28;20188;-72
2021/04/14 06:14:11;;;;;;;12.35;10.80;;;;;;;1.85;76.26;100622.91;4972845;28;20244;-72
2021/04/14 06:16:38;;;;;;;14.98;10.43;;;;;;;2.07;75.58;100626.25;4972946;28;20184;-72
2021/04/14 06:19:05;;;;;;;14.20;11.32;;;;;;;2.32;74.75;100635.84;4973478;28;20862;-73
2021/04/14 06:21:31;;;;;;;13.80;10.20;;;;;;;2.52;73.91;100623.25;4972686;28;20218;-72
2021/04/14 06:23:58;;;;;;;13.88;11.75;;;;;;;2.67;73.30;100627.56;4972915;28;20220;-74
2021/04/14 06:26:32;;;;;;;16.05;10.15;;;;;;;2.86;71.51;100629.13;4973066;28;20188;-72
2021/04/14 06:28:58;;;;;;;13.13;10.45;;;;;;;3.02;70.71;100627.19;4972985;28;20199;-73
2021/04/14 06:31:26;;;;;;;14.10;10.30;;;;;;;3.15;70.17;100627.97;4972550;28;20285;-73
2021/04/14 06:33:53;;;;;;;14.88;12.15;;;;;;;3.62;69.08;100634.50;4972819;28;20594;-74
2021/04/14 06:36:19;;;;;;;13.73;8.75;;;;;;;4.19;66.29;100636.34;4972871;28;20196;-73
2021/04/14 06:38:47;;;;;;;14.98;9.02;;;;;;;4.65;64.21;100626.69;4972700;28;20215;-73
2021/04/14 06:41:42;;;;;;;15.48;10.23;;;;;;;4.83;62.55;100630.81;4972977;28;20199;-73
2021/04/14 06:44:23;;;;;;;9.88;8.85;;;;;;;4.85;61.99;100637.91;4972946;28;20210;-74
2021/04/14 06:46:52;;;;;;;11.23;8.70;;;;;;;4.85;61.40;100632.56;4972219;28;20276;-73
2021/04/14 06:49:26;;;;;;;14.65;11.35;;;;;;;5.02;61.30;100637.59;4972356;28;20193;-73
2021/04/14 06:52:00;;;;;;;10.73;9.63;;;;;;;4.83;62.40;100636.16;4972661;28;20223;-73
2021/04/14 06:54:36;;;;;;;11.40;9.20;;;;;;;4.99;60.90;100630.50;4973021;28;20194;-74
2021/04/14 06:57:05;;;;;;;12.60;9.80;;;;;;;5.12;60.71;100628.50;4957118;28;20273;-74
2021/04/14 06:59:35;;;;;;;12.20;10.05;;;;;;;4.98;60.94;100635.91;4956754;28;20211;-73
2021/04/14 07:02:07;;;;;;;10.18;9.18;;;;;;;5.23;60.08;100631.84;4956578;28;20561;-74
2021/04/14 07:04:40;;;;;;;11.80;9.30;;;;;;;5.09;60.07;100641.00;4957027;28;20228;-74
2021/04/14 07:07:12;;;;;;;9.95;8.80;;;;;;;5.14;60.32;100632.00;4956841;28;20220;-73
2021/04/14 07:09:42;;;;;;;16.27;10.75;;;;;;;5.31;60.15;100638.81;4956376;28;20224;-73
2021/04/14 07:12:13;;;;;;;15.00;9.02;;;;;;;5.62;59.27;100639.94;4956785;28;20320;-72
2021/04/14 07:14:39;;;;;;;11.52;9.45;;;;;;;5.96;58.17;100638.34;4956524;28;20304;-73
2021/04/14 07:17:22;;;;;;;12.30;8.70;;;;;;;5.99;57.63;100644.53;4956721;28;20272;-73
2021/04/14 07:20:07;;;;;;;17.67;9.80;;;;;;;6.15;56.84;100644.16;4956453;28;20228;-72
2021/04/14 07:22:43;;;;;;;9.18;7.80;;;;;;;6.20;56.74;100635.13;4956656;28;20213;-72
2021/04/14 07:25:15;;;;;;;14.68;12.15;;;;;;;6.62;55.95;100634.09;4958785;28;20244;-72
2021/04/14 07:27:51;;;;;;;18.67;13.10;;;;;;;6.77;55.90;100625.69;4975614;28;20192;-72
2021/04/14 07:30:24;;;;;;;10.30;8.75;;;;;;;6.72;55.63;100635.63;4975882;28;20179;-72
2021/04/14 07:33:01;;;;;;;8.80;6.38;;;;;;;6.76;54.17;100631.97;4975832;28;20234;-73
2021/04/14 07:35:33;;;;;;;8.15;6.97;;;;;;;6.77;54.71;100635.53;4975506;28;20692;-73
2021/04/14 07:38:06;;;;;;;7.82;6.03;;;;;;;6.78;53.96;100632.78;4975285;28;20271;-72
2021/04/14 07:40:41;;;;;;;8.68;5.70;;;;;;;6.95;53.41;100632.34;4975028;28;20228;-73
2021/04/14 07:43:27;;;;;;;8.60;6.35;;;;;;;6.99;53.42;100643.88;4975117;28;20214;-72
2021/04/14 07:45:53;;;;;;;6.68;5.97;;;;;;;6.60;54.11;100642.19;4975223;28;20224;-73
2021/04/14 07:48:24;;;;;;;11.20;5.70;;;;;;;6.37;54.87;100632.03;4975450;28;20611;-71
2021/04/14 07:50:56;;;;;;;10.35;6.72;;;;;;;6.56;54.44;100629.78;4975137;28;20195;-71
2021/04/14 07:53:26;;;;;;;6.43;5.72;;;;;;;6.80;53.66;100627.41;4974780;28;20196;-71
2021/04/14 07:56:01;;;;;;;7.47;5.50;;;;;;;7.30;52.44;100622.44;4975219;28;20283;-72
2021/04/14 07:58:28;;;;;;;6.32;5.30;;;;;;;7.47;51.95;100621.97;4975200;28;20192;-72
2021/04/14 08:00:54;;;;;;;5.68;4.60;;;;;;;7.57;51.14;100620.78;4974936;28;20307;-72
2021/04/14 08:03:28;;;;;;;6.28;5.30;;;;;;;7.80;50.72;100620.13;4975257;28;20721;-72
2021/04/14 08:06:07;;;;;;;7.70;5.28;;;;;;;7.90;50.45;100623.38;4974968;28;20184;-72
2021/04/14 08:08:33;;;;;;;4.97;4.50;;;;;;;7.89;50.04;100617.16;4975079;28;20230;-74
2021/04/14 08:11:03;;;;;;;4.90;4.45;;;;;;;7.96;49.93;100620.50;4974898;28;20298;-71
2021/04/14 08:13:36;;;;;;;4.55;4.03;;;;;;;8.12;49.32;100619.09;4975262;28;20531;-72
2021/04/14 08:16:12;;;;;;;8.43;5.72;;;;;;;8.34;48.65;100619.28;4974286;28;20279;-71
2021/04/14 08:18:49;;;;;;;5.82;4.85;;;;;;;8.65;47.88;100617.41;4975043;28;20691;-72
2021/04/14 08:21:26;;;;;;;8.35;6.53;;;;;;;8.68;47.66;100609.25;4974387;28;20208;-71
2021/04/14 08:23:55;;;;;;;18.90;11.15;;;;;;;8.82;47.54;100607.00;4974091;28;20578;-72
2021/04/14 08:26:22;;;;;;;4.35;4.05;;;;;;;8.74;47.63;100617.09;4965907;28;20275;-74
2021/04/14 08:28:50;;;;;;;5.85;4.38;;;;;;;9.02;46.67;100616.13;4974125;28;20208;-71
2021/04/14 08:31:34;;;;;;;10.13;4.78;;;;;;;8.72;46.50;100606.41;4974268;28;20683;-72
2021/04/14 08:34:10;;;;;;;5.47;4.15;;;;;;;8.71;46.24;100610.03;4974396;28;20197;-73
2021/04/14 08:36:42;;;;;;;5.18;4.68;;;;;;;8.91;46.05;100612.03;4974383;28;20318;-71
2021/04/14 08:39:17;;;;;;;4.68;4.28;;;;;;;8.87;46.28;100607.69;4974621;28;20207;-72
2021/04/14 08:41:43;;;;;;;6.65;4.30;;;;;;;8.94;46.04;100606.53;4974026;28;20195;-71
2021/04/14 08:44:12;;;;;;;5.03;4.15;;;;;;;8.90;45.83;100610.25;4974032;28;20602;-73
2021/04/14 08:46:41;;;;;;;7.03;4.15;;;;;;;8.86;46.01;100605.91;4974058;28;20255;-74
2021/04/14 08:49:14;;;;;;;3.92;3.55;;;;;;;8.73;45.71;100604.63;4973959;28;20204;-73
2021/04/14 08:51:42;;;;;;;5.65;4.45;;;;;;;8.73;46.31;100604.63;4974245;28;20201;-72
2021/04/14 08:54:13;;;;;;;19.30;6.22;;;;;;;8.95;45.95;100593.97;4973563;28;20284;-72
2021/04/14 08:56:39;;;;;;;4.60;4.18;;;;;;;9.30;44.54;100598.09;4973819;28;20201;-73
2021/04/14 08:59:06;;;;;;;9.95;5.07;;;;;;;9.81;43.79;100593.47;4974179;28;20182;-72
2021/04/14 09:01:33;;;;;;;6.53;4.30;;;;;;;9.96;43.78;100595.56;4973768;28;20236;-72
2021/04/14 09:04:01;;;;;;;5.72;4.10;;;;;;;9.64;43.57;100593.25;4973470;28;20555;-72
2021/04/14 09:06:31;;;;;;;6.90;4.20;;;;;;;10.04;42.50;100597.97;4973751;28;20188;-73
2021/04/14 09:09:04;;;;;;;6.40;3.75;;;;;;;9.17;42.51;100580.66;4973909;28;20204;-74
2021/04/14 09:11:30;;;;;;;4.93;3.53;;;;;;;9.48;42.88;100582.22;4973586;28;20213;-72
2021/04/14 09:14:03;;;;;;;10.38;4.72;;;;;;;9.72;40.63;100581.28;4973814;28;20198;-73
2021/04/14 09:16:38;;;;;;;4.57;3.80;;;;;;;10.41;40.21;100569.56;4973655;28;20261;-74
2021/04/14 09:19:10;;;;;;;5.97;4.20;;;;;;;10.81;39.46;100570.56;4973127;28;20201;-72
2021/04/14 09:21:47;;;;;;;6.65;4.60;;;;;;;10.28;39.12;100568.28;4972983;28;20282;-73
2021/04/14 09:24:34;;;;;;;5.20;3.60;;;;;;;9.80;38.87;100567.50;4973862;28;20281;-73
2021/04/14 09:27:02;;;;;;;4.15;3.85;;;;;;;9.75;39.29;100567.69;4973646;28;20238;-72
2021/04/14 09:29:33;;;;;;;6.70;4.15;;;;;;;9.79;39.50;100566.66;4972872;28;20191;-72
2021/04/14 09:32:09;;;;;;;5.35;3.85;;;;;;;9.98;39.85;100571.28;4973045;28;20202;-73
2021/04/14 09:34:38;;;;;;;4.45;4.10;;;;;;;10.05;38.85;100561.16;4973008;28;20201;-74
2021/04/14 09:37:23;;;;;;;3.55;3.25;;;;;;;9.85;39.46;100553.88;4973062;28;20194;-73
2021/04/14 09:39:57;;;;;;;6.15;4.00;;;;;;;9.85;40.29;100561.94;4973170;28;20580;-73
2021/04/14 09:42:31;;;;;;;4.57;4.18;;;;;;;10.50;39.50;100552.13;4973235;28;20190;-72
2021/04/14 09:44:59;;;;;;;5.35;4.05;;;;;;;10.73;38.88;100556.53;4972464;28;20317;-74
2021/04/14 09:47:36;;;;;;;14.93;10.68;;;;;;;10.16;40.17;100562.47;4972557;28;20201;-73
2021/04/14 09:50:18;;;;;;;7.22;5.18;;;;;;;9.19;43.56;100566.22;4973086;28;20226;-72
2021/04/14 09:52:52;;;;;;;6.60;4.85;;;;;;;8.86;45.30;100565.63;4973249;28;20647;-72
2021/04/14 09:55:20;;;;;;;6.85;4.90;;;;;;;8.62;46.17;100571.91;4972798;28;20202;-73
2021/04/14 09:57:50;;;;;;;4.30;3.90;;;;;;;8.29;49.77;100572.06;4973316;28;20275;-73
2021/04/14 10:00:26;;;;;;;7.05;4.90;;;;;;;8.05;51.01;100582.69;4972152;28;20212;-72
2021/04/14 10:02:54;;;;;;;7.15;4.60;;;;;;;7.85;53.22;100587.78;4972064;28;20665;-74
2021/04/14 10:05:21;;;;;;;7.93;4.70;;;;;;;7.75;53.05;100580.94;4972300;28;20291;-73
2021/04/14 10:07:49;;;;;;;4.78;4.38;;;;;;;7.90;52.54;100570.63;4971903;28;20284;-73
2021/04/14 10:10:20;;;;;;;5.93;4.63;;;;;;;7.92;48.13;100562.53;4973013;28;20623;-74
2021/04/14 10:12:47;;;;;;;8.48;5.80;;;;;;;8.14;47.70;100565.41;4972263;28;20184;-72
2021/04/14 10:15:13;;;;;;;5.40;4.85;;;;;;;8.65;47.23;100561.03;4972570;28;20196;-72
2021/04/14 10:17:40;;;;;;;5.03;4.63;;;;;;;8.94;48.35;100552.81;4972612;28;20247;-71
2021/04/14 10:20:17;;;;;;;10.85;5.65;;;;;;;9.36;48.86;100562.03;4972397;28;20224;-73
2021/04/14 10:22:47;;;;;;;5.95;4.40;;;;;;;9.45;47.92;100559.00;4972444;28;20284;-72
2021/04/14 10:25:21;;;;;;;7.72;4.57;;;;;;;10.03;45.51;100545.06;4972314;28;20300;-73
2021/04/14 10:27:49;;;;;;;8.65;3.85;;;;;;;10.18;44.20;100540.88;4972864;28;20189;-73
2021/04/14 10:30:23;;;;;;;5.55;4.18;;;;;;;10.77;42.30;100526.69;4976167;28;20204;-72
2021/04/14 10:32:51;;;;;;;5.93;4.20;;;;;;;10.73;41.72;100527.75;4976978;28;20272;-73
2021/04/14 10:35:20;;;;;;;4.95;4.22;;;;;;;10.79;42.21;100527.50;4976577;28;20192;-72
2021/04/14 10:37:48;;;;;;;5.32;4.10;;;;;;;11.04;41.17;100516.50;4976568;28;20213;-73
2021/04/14 10:40:19;;;;;;;4.50;4.10;;;;;;;11.52;39.86;100514.28;4976230;28;20195;-73
2021/04/14 10:42:47;;;;;;;6.20;4.82;;;;;;;11.84;39.18;100515.41;4975716;28;20208;-74
2021/04/14 10:45:15;;;;;;;5.88;4.13;;;;;;;12.21;36.52;100510.94;4975845;28;20220;-73
2021/04/14 10:47:44;;;;;;;3.95;3.25;;;;;;;12.52;34.84;100503.97;4976558;28;20242;-74
2021/04/14 10:50:18;;;;;;;4.40;3.90;;;;;;;12.22;35.47;100503.72;4975993;28;20211;-72
2021/04/14 10:52:48;;;;;;;7.65;5.50;;;;;;;12.05;35.46;100493.75;4976314;28;20530;-72
2021/04/14 10:55:18;;;;;;;8.68;4.13;;;;;;;11.36;35.20;100495.25;4976258;28;20653;-72
2021/04/14 10:57:52;;;;;;;4.20;3.80;;;;;;;11.02;36.16;100494.13;4976216;28;20206;-71
2021/04/14 11:00:23;;;;;;;5.03;4.22;;;;;;;10.50;36.34;100488.38;4975886;28;20290;-74
2021/04/14 11:02:51;;;;;;;4.78;4.13;;;;;;;10.85;36.19;100486.81;4975876;28;20274;-71
2021/04/14 11:05:24;;;;;;;5.60;4.40;;;;;;;11.11;36.68;100483.88;4975959;28;20234;-71
2021/04/14 11:07:52;;;;;;;6.32;4.80;;;;;;;10.77;36.49;100480.03;4976350;28;20200;-72
2021/04/14 11:10:25;;;;;;;5.20;4.70;;;;;;;10.45;37.06;100485.03;4975832;28;20646;-74
2021/04/14 11:12:53;;;;;;;4.60;4.10;;;;;;;9.63;38.67;100484.78;4975188;28;20275;-73
2021/04/14 11:15:23;;;;;;;6.03;5.25;;;;;;;9.42;39.88;100491.03;4975252;28;20202;-73
2021/04/14 11:17:55;;;;;;;5.10;4.55;;;;;;;9.45;40.75;100491.81;4975710;28;20225;-74
2021/04/14 11:20:25;;;;;;;6.97;5.07;;;;;;;9.11;41.16;100484.16;4975377;28;20321;-73
2021/04/14 11:22:53;;;;;;;5.80;4.85;;;;;;;8.65;41.99;100473.31;4976164;28;20206;-73
2021/04/14 11:25:28;;;;;;;5.07;4.63;;;;;;;9.10;41.72;100471.66;4975979;28;20218;-72
2021/04/14 11:28:03;;;;;;;11.32;4.55;;;;;;;9.50;41.12;100475.50;4975888;28;20200;-72
2021/04/14 11:30:30;;;;;;;5.00;4.47;;;;;;;9.81;40.17;100472.41;4975222;28;20293;-73
2021/04/14 11:33:00;;;;;;;6.57;4.55;;;;;;;10.10;39.83;100468.50;4975357;28;20207;-73
2021/04/14 11:35:39;;;;;;;6.72;4.47;;;;;;;10.66;38.55;100466.16;4974893;28;20196;-73
2021/04/14 11:38:05;;;;;;;5.88;5.25;;;;;;;10.96;37.65;100455.81;4975385;28;20197;-71